White Hall, Texas
Current Conditions -  °F | °C
As of 9:15 PM on Thursday 18 Dec 2014 (Local Time) from K11R Reporting Station
Overcast Overcast  
Wind Chill: 16°   Ceiling: 1700
Heat Index: 16°   Visibility: 7mi
Dew Point: 14°   Wind: 7mph
Humidity: 87%   Direction: 40°NE
Pressure: 30.06"   Gusts: NA
Location:  30.367°N, 96.0045°W
Report Text: K11R 190315Z AUTO 04006KT 7SM OVC017 16/14 A3006 RMK AO2 LTG DSNT SE THRU SW T01580136
Loading
Personal Weather Stations






























Interactive Weather Map New forecast layout! Learn more

10-Day Weather Forecast

Advertisements
Track Severe Weather on mobile